createdAt,value
2022-08-26T00:01:54.671Z,13.60
2022-08-26T00:04:23.424Z,14.30
2022-08-26T00:06:51.631Z,13.53
2022-08-26T00:09:19.550Z,15.33
2022-08-26T00:11:48.832Z,15.10
2022-08-26T00:14:16.870Z,15.17
2022-08-26T00:16:47.244Z,14.80
2022-08-26T00:19:18.084Z,16.50
2022-08-26T00:21:46.536Z,15.00
2022-08-26T00:24:16.722Z,14.07
2022-08-26T00:26:44.945Z,14.33
2022-08-26T00:29:13.150Z,14.97
2022-08-26T00:31:41.074Z,14.40
2022-08-26T00:34:11.346Z,13.83
2022-08-26T00:36:41.390Z,14.03
2022-08-26T00:39:09.613Z,14.53
2022-08-26T00:41:39.206Z,14.70
2022-08-26T00:44:07.167Z,14.73
2022-08-26T00:46:36.462Z,13.83
2022-08-26T00:49:12.008Z,14.27
2022-08-26T00:51:44.962Z,14.93
2022-08-26T00:54:13.256Z,14.97
2022-08-26T00:56:43.145Z,14.80
2022-08-26T00:59:12.993Z,14.90
2022-08-26T01:01:42.147Z,14.53
2022-08-26T01:04:15.982Z,14.13
2022-08-26T01:06:45.071Z,14.90
2022-08-26T01:09:13.505Z,13.33
2022-08-26T01:11:41.379Z,13.83
2022-08-26T01:14:09.510Z,15.07
2022-08-26T01:16:37.924Z,13.93
2022-08-26T01:19:10.929Z,15.00
2022-08-26T01:21:41.947Z,14.00
2022-08-26T01:24:11.989Z,14.57
2022-08-26T01:26:42.924Z,15.13
2022-08-26T01:29:12.846Z,14.33
2022-08-26T01:31:42.321Z,13.60
2022-08-26T01:34:14.828Z,13.57
2022-08-26T01:36:42.465Z,12.97
2022-08-26T01:39:16.726Z,14.10
2022-08-26T01:41:45.309Z,13.80
2022-08-26T01:44:20.790Z,14.93
2022-08-26T01:46:50.634Z,14.47
2022-08-26T01:49:18.757Z,14.60
2022-08-26T01:51:47.621Z,14.77
2022-08-26T01:54:17.134Z,14.20
2022-08-26T01:56:48.789Z,14.77
2022-08-26T01:59:17.651Z,14.30
2022-08-26T02:01:45.233Z,14.97
2022-08-26T02:04:16.733Z,15.13
2022-08-26T02:06:45.284Z,14.00
2022-08-26T02:09:12.950Z,14.97
2022-08-26T02:11:45.372Z,15.80
2022-08-26T02:14:15.658Z,14.00
2022-08-26T02:16:45.617Z,16.70
2022-08-26T02:19:17.163Z,15.57
2022-08-26T02:21:50.975Z,14.83
2022-08-26T02:24:20.956Z,14.40
2022-08-26T02:26:50.479Z,14.80
2022-08-26T02:29:21.411Z,15.53
2022-08-26T02:31:49.094Z,15.30
2022-08-26T02:34:20.417Z,14.90
2022-08-26T02:36:49.235Z,15.13
2022-08-26T02:39:22.289Z,16.33
2022-08-26T02:41:51.685Z,15.70
2022-08-26T02:44:19.721Z,16.00
2022-08-26T02:46:47.438Z,15.50
2022-08-26T02:49:15.642Z,15.50
2022-08-26T02:51:45.050Z,15.20
2022-08-26T02:54:12.822Z,15.10
2022-08-26T02:56:41.009Z,15.40
2022-08-26T02:59:12.521Z,15.80
2022-08-26T03:01:41.158Z,16.77
2022-08-26T03:04:10.572Z,16.20
2022-08-26T03:06:38.865Z,16.13
2022-08-26T03:09:08.771Z,14.87
2022-08-26T03:11:36.666Z,15.87
2022-08-26T03:14:05.846Z,15.90
2022-08-26T03:16:36.645Z,16.57
2022-08-26T03:19:05.452Z,16.40
2022-08-26T03:21:33.800Z,15.87
2022-08-26T03:24:04.803Z,14.80
2022-08-26T03:26:32.422Z,15.60
2022-08-26T03:29:17.961Z,15.10
2022-08-26T03:31:47.313Z,16.17
2022-08-26T03:34:15.167Z,15.70
2022-08-26T03:36:43.288Z,16.37
2022-08-26T03:39:10.951Z,15.57
2022-08-26T03:41:39.751Z,15.83
2022-08-26T03:44:08.902Z,15.60
2022-08-26T03:46:37.180Z,15.50
2022-08-26T03:49:06.335Z,16.00
2022-08-26T03:51:35.098Z,15.70
2022-08-26T03:54:08.362Z,15.87
2022-08-26T03:56:36.611Z,16.10
2022-08-26T03:59:05.316Z,15.63
2022-08-26T04:01:36.026Z,15.90
2022-08-26T04:04:06.473Z,16.50
2022-08-26T04:06:35.785Z,15.80
2022-08-26T04:09:05.561Z,15.90
2022-08-26T04:11:34.125Z,16.37
2022-08-26T04:14:05.042Z,16.60
2022-08-26T04:16:34.552Z,15.70
2022-08-26T04:19:03.399Z,17.10
2022-08-26T04:21:32.274Z,15.73
2022-08-26T04:24:23.346Z,16.23
2022-08-26T04:26:51.108Z,16.97
2022-08-26T04:29:20.171Z,17.67
2022-08-26T04:31:48.628Z,16.23
2022-08-26T04:34:16.762Z,17.83
2022-08-26T04:36:45.946Z,16.87
2022-08-26T04:39:16.662Z,17.27
2022-08-26T04:41:47.194Z,16.97
2022-08-26T04:44:16.597Z,17.23
2022-08-26T04:46:45.209Z,17.63
2022-08-26T04:49:13.423Z,17.20
2022-08-26T04:51:41.343Z,16.27
2022-08-26T04:54:14.012Z,16.50
2022-08-26T04:56:45.099Z,17.30
2022-08-26T04:59:17.051Z,17.00
2022-08-26T05:01:46.430Z,17.20
2022-08-26T05:04:16.326Z,16.97
2022-08-26T05:06:46.844Z,16.03
2022-08-26T05:09:18.313Z,16.60
2022-08-26T05:11:48.452Z,15.90
2022-08-26T05:14:19.950Z,15.90
2022-08-26T05:16:47.751Z,16.37
2022-08-26T05:19:17.201Z,17.57
2022-08-26T05:21:49.760Z,16.80
2022-08-26T05:24:19.085Z,16.60
2022-08-26T05:26:48.050Z,16.40
2022-08-26T05:29:16.216Z,16.40
2022-08-26T05:31:44.673Z,16.17
2022-08-26T05:34:12.684Z,15.40
2022-08-26T05:36:41.446Z,15.90
2022-08-26T05:39:10.580Z,16.13
2022-08-26T05:41:41.115Z,16.60
2022-08-26T05:44:10.150Z,17.10
2022-08-26T05:46:39.381Z,15.80
2022-08-26T05:49:12.410Z,16.70
2022-08-26T05:51:41.550Z,15.33
2022-08-26T05:54:10.226Z,15.10
2022-08-26T05:56:39.993Z,16.00
2022-08-26T05:59:14.392Z,16.00
2022-08-26T06:01:43.437Z,15.47
2022-08-26T06:04:11.701Z,14.73
2022-08-26T06:06:41.315Z,15.70
2022-08-26T06:09:11.253Z,15.47
2022-08-26T06:11:40.745Z,15.77
2022-08-26T06:14:11.650Z,15.40
2022-08-26T06:16:41.224Z,15.10
2022-08-26T06:19:10.502Z,14.83
2022-08-26T06:21:40.569Z,15.37
2022-08-26T06:24:27.547Z,14.17
2022-08-26T06:26:57.858Z,13.70
2022-08-26T06:29:26.737Z,14.50
2022-08-26T06:31:56.361Z,13.63
2022-08-26T06:34:29.760Z,14.10
2022-08-26T06:36:59.178Z,13.97
2022-08-26T06:39:26.818Z,13.47
2022-08-26T06:41:59.979Z,14.17
2022-08-26T06:44:27.762Z,13.03
2022-08-26T06:46:55.657Z,12.67
2022-08-26T06:49:27.322Z,14.80
2022-08-26T06:51:56.429Z,13.50
2022-08-26T06:54:23.997Z,13.23
2022-08-26T06:56:51.615Z,13.30
2022-08-26T06:59:21.125Z,12.80
2022-08-26T07:01:49.688Z,12.13
2022-08-26T07:04:22.054Z,12.43
2022-08-26T07:06:52.851Z,15.80
2022-08-26T07:09:21.908Z,17.03
2022-08-26T07:11:50.521Z,13.47
2022-08-26T07:14:21.175Z,13.30
2022-08-26T07:16:49.480Z,12.83
2022-08-26T07:19:30.282Z,13.77
2022-08-26T07:22:00.025Z,12.43
2022-08-26T07:24:28.400Z,12.80
2022-08-26T07:26:59.601Z,11.23
2022-08-26T07:29:28.629Z,11.40
2022-08-26T07:31:56.551Z,11.50
2022-08-26T07:34:26.118Z,12.47
2022-08-26T07:36:53.962Z,12.50
2022-08-26T07:39:23.271Z,12.13
2022-08-26T07:41:51.260Z,12.60
2022-08-26T07:44:19.124Z,11.60
2022-08-26T07:46:52.424Z,13.70
2022-08-26T07:49:21.762Z,11.10
2022-08-26T07:51:49.783Z,12.37
2022-08-26T07:54:17.803Z,11.10
2022-08-26T07:56:48.450Z,10.70
2022-08-26T07:59:16.191Z,11.30
2022-08-26T08:01:45.031Z,10.73
2022-08-26T08:04:14.713Z,10.87
2022-08-26T08:06:43.981Z,10.43
2022-08-26T08:09:12.112Z,10.70
2022-08-26T08:11:40.018Z,9.83
2022-08-26T08:14:08.310Z,10.23
2022-08-26T08:16:39.127Z,9.60
2022-08-26T08:19:10.620Z,9.97
2022-08-26T08:21:40.391Z,10.03
2022-08-26T08:24:08.552Z,13.50
2022-08-26T08:26:36.352Z,10.20
2022-08-26T08:29:04.773Z,11.00
2022-08-26T08:31:56.176Z,9.33
2022-08-26T08:34:22.266Z,8.93
2022-08-26T08:36:53.269Z,11.33
2022-08-26T08:39:22.351Z,8.60
2022-08-26T08:41:57.070Z,10.00
2022-08-26T08:46:57.813Z,10.53
2022-08-26T08:49:26.099Z,11.80
2022-08-26T08:51:57.892Z,10.37
2022-08-26T08:54:26.764Z,8.60
2022-08-26T08:57:00.610Z,9.30
2022-08-26T08:59:29.303Z,10.30
2022-08-26T09:02:03.350Z,10.10
2022-08-26T09:04:37.148Z,9.53
2022-08-26T09:07:09.696Z,10.10
2022-08-26T09:09:39.614Z,7.90
2022-08-26T09:12:10.470Z,8.93
2022-08-26T09:14:38.457Z,7.90
2022-08-26T09:17:11.101Z,8.57
2022-08-26T09:19:41.130Z,8.17
2022-08-26T09:22:10.694Z,8.60
2022-08-26T09:24:41.895Z,9.27
2022-08-26T09:27:36.279Z,7.90
2022-08-26T09:30:06.308Z,9.40
2022-08-26T09:32:35.144Z,8.70
2022-08-26T09:35:06.146Z,9.60
2022-08-26T09:37:37.752Z,10.13
2022-08-26T09:40:14.815Z,8.77
2022-08-26T09:42:42.459Z,9.00
2022-08-26T09:45:13.155Z,9.43
2022-08-26T09:47:52.091Z,9.20
2022-08-26T09:50:21.431Z,9.27
2022-08-26T09:53:04.000Z,8.33
2022-08-26T09:55:40.029Z,8.90
2022-08-26T09:58:08.695Z,7.83
2022-08-26T10:00:38.548Z,8.00
2022-08-26T10:03:08.827Z,8.43
2022-08-26T10:05:39.679Z,8.37
2022-08-26T10:08:23.755Z,8.03
2022-08-26T10:10:53.122Z,8.17
2022-08-26T10:13:24.738Z,8.07
2022-08-26T10:15:56.667Z,8.33
2022-08-26T10:18:33.782Z,10.13
2022-08-26T10:21:05.051Z,9.00
2022-08-26T10:26:14.582Z,8.70
2022-08-26T10:28:45.091Z,11.07
2022-08-26T10:31:20.054Z,8.03
2022-08-26T10:33:51.822Z,9.87
2022-08-26T10:37:05.097Z,10.27
2022-08-26T10:39:31.237Z,8.50
2022-08-26T10:42:01.274Z,8.97
2022-08-26T10:44:33.184Z,8.60
2022-08-26T10:47:03.890Z,8.40
2022-08-26T10:49:33.176Z,8.60
2022-08-26T10:52:04.735Z,8.23
2022-08-26T10:54:47.069Z,8.97
2022-08-26T10:57:17.971Z,10.30
2022-08-26T10:59:54.999Z,8.73
2022-08-26T11:02:29.461Z,9.50
2022-08-26T11:04:58.493Z,10.30
2022-08-26T11:07:31.776Z,11.10
2022-08-26T11:10:02.475Z,9.33
2022-08-26T11:12:50.707Z,10.17
2022-08-26T11:15:37.281Z,9.47
2022-08-26T11:18:06.050Z,10.47
2022-08-26T11:20:37.066Z,10.63
2022-08-26T11:23:22.473Z,9.97
2022-08-26T11:26:05.169Z,10.80
2022-08-26T11:28:35.823Z,10.23
2022-08-26T11:31:04.475Z,9.87
2022-08-26T11:33:59.618Z,10.53
2022-08-26T11:36:39.651Z,10.27
2022-08-26T11:39:15.457Z,10.30
2022-08-26T11:41:44.222Z,10.33
2022-08-26T11:44:17.283Z,12.33
2022-08-26T11:46:53.224Z,11.57
2022-08-26T11:49:22.179Z,11.27
2022-08-26T11:51:49.759Z,10.93
2022-08-26T11:54:29.243Z,11.97
2022-08-26T11:57:11.651Z,16.83
2022-08-26T11:59:42.239Z,14.53
2022-08-26T12:02:15.479Z,17.57
2022-08-26T12:04:44.224Z,21.37
2022-08-26T12:07:12.879Z,23.87
2022-08-26T12:09:52.701Z,24.20
2022-08-26T12:12:23.907Z,21.00
2022-08-26T12:15:07.925Z,15.10
2022-08-26T12:17:35.619Z,14.80
2022-08-26T12:20:07.445Z,16.03
2022-08-26T12:22:36.023Z,15.80
2022-08-26T12:25:05.921Z,17.60
2022-08-26T12:27:34.840Z,16.70
2022-08-26T12:30:08.595Z,17.60
2022-08-26T12:32:57.322Z,20.70
2022-08-26T12:35:26.803Z,20.20
2022-08-26T12:37:54.896Z,21.43
2022-08-26T12:40:28.886Z,29.53
2022-08-26T12:42:59.332Z,25.27
2022-08-26T12:45:29.525Z,37.83
2022-08-26T12:47:59.338Z,32.13
2022-08-26T12:50:29.151Z,17.40
2022-08-26T12:52:58.753Z,44.73
2022-08-26T12:55:27.864Z,21.00
2022-08-26T12:58:10.841Z,43.60
2022-08-26T13:00:41.249Z,136.23
2022-08-26T13:03:23.848Z,36.17
2022-08-26T13:05:52.895Z,18.27
2022-08-26T13:08:26.660Z,23.83
2022-08-26T13:11:03.462Z,21.20
2022-08-26T13:13:31.299Z,19.40
2022-08-26T13:16:00.939Z,18.83
2022-08-26T13:18:29.618Z,23.77
2022-08-26T13:20:57.257Z,20.33
2022-08-26T13:23:25.862Z,1.60
2022-08-26T13:25:53.716Z,2.27
2022-08-26T13:28:21.402Z,1.50
2022-08-26T13:30:49.720Z,1.60
2022-08-26T13:33:19.280Z,1.00
2022-08-26T13:35:48.173Z,2.33
2022-08-26T13:38:22.352Z,1.87
2022-08-26T13:41:02.712Z,0.77
2022-08-26T13:43:30.612Z,2.50
2022-08-26T13:46:01.539Z,1.10
2022-08-26T13:48:31.402Z,1.40
2022-08-26T13:50:59.087Z,2.13
2022-08-26T13:53:26.849Z,3.57
2022-08-26T13:55:54.569Z,2.23
2022-08-26T13:58:22.137Z,14.53
2022-08-26T14:00:53.387Z,22.77
2022-08-26T14:03:21.290Z,20.70
2022-08-26T14:05:50.490Z,20.67
2022-08-26T14:08:18.366Z,22.10
2022-08-26T14:13:18.943Z,23.50
2022-08-26T14:15:47.483Z,24.73
2022-08-26T14:18:17.031Z,21.77
2022-08-26T14:20:47.894Z,20.17
2022-08-26T14:23:17.015Z,20.23
2022-08-26T14:25:44.797Z,21.90
2022-08-26T14:28:13.228Z,24.97
2022-08-26T14:30:42.255Z,20.80
2022-08-26T14:33:11.733Z,20.33
2022-08-26T14:35:48.878Z,22.20
2022-08-26T14:38:18.876Z,18.13
2022-08-26T14:40:46.631Z,17.63
2022-08-26T14:43:15.168Z,16.77
2022-08-26T14:45:44.063Z,14.90
2022-08-26T14:48:12.017Z,15.97
2022-08-26T14:50:39.653Z,15.10
2022-08-26T14:53:24.737Z,16.37
2022-08-26T14:55:53.808Z,15.80
2022-08-26T14:58:21.420Z,21.97
2022-08-26T15:00:49.281Z,20.53
2022-08-26T15:05:49.981Z,21.00
2022-08-26T15:08:18.215Z,20.90
2022-08-26T15:10:45.987Z,21.10
2022-08-26T15:13:15.294Z,22.57
2022-08-26T15:15:43.089Z,26.00
2022-08-26T15:18:10.904Z,32.47
2022-08-26T15:20:39.055Z,31.33
2022-08-26T15:23:07.347Z,29.07
2022-08-26T15:25:35.410Z,24.27
2022-08-26T15:28:03.213Z,26.33
2022-08-26T15:30:33.434Z,28.60
2022-08-26T15:33:01.167Z,25.73
2022-08-26T15:35:29.370Z,25.83
2022-08-26T15:38:00.944Z,26.10
2022-08-26T15:40:28.745Z,25.80
2022-08-26T15:43:11.283Z,22.07
2022-08-26T15:45:45.724Z,24.73
2022-08-26T15:48:13.614Z,24.83
2022-08-26T15:50:49.736Z,28.13
2022-08-26T15:53:17.641Z,26.80
2022-08-26T15:55:45.313Z,26.40
2022-08-26T15:58:12.932Z,25.80
2022-08-26T16:00:41.276Z,27.20
2022-08-26T16:03:10.341Z,25.10
2022-08-26T16:05:38.185Z,24.93
2022-08-26T16:08:06.381Z,26.30
2022-08-26T16:10:34.305Z,25.80
2022-08-26T16:13:02.122Z,28.00
2022-08-26T16:15:29.941Z,24.60
2022-08-26T16:17:59.340Z,27.50
2022-08-26T16:20:28.669Z,22.60
2022-08-26T16:22:57.457Z,24.87
2022-08-26T16:25:25.398Z,23.97
2022-08-26T16:27:53.666Z,24.73
2022-08-26T16:30:22.997Z,25.50
2022-08-26T16:32:50.797Z,26.07
2022-08-26T16:35:18.720Z,25.40
2022-08-26T16:37:47.645Z,26.17
2022-08-26T16:40:15.512Z,24.33
2022-08-26T16:42:43.216Z,22.93
2022-08-26T16:45:11.166Z,23.37
2022-08-26T16:47:38.844Z,23.03
2022-08-26T16:50:11.145Z,23.30
2022-08-26T16:52:38.898Z,22.00
2022-08-26T16:55:09.192Z,24.20
2022-08-26T16:57:37.553Z,24.30
2022-08-26T17:00:06.337Z,22.80
2022-08-26T17:02:34.459Z,21.27
2022-08-26T17:05:02.052Z,24.57
2022-08-26T17:07:29.821Z,26.20
2022-08-26T17:09:57.742Z,24.57
2022-08-26T17:12:29.510Z,23.80
2022-08-26T17:14:57.161Z,24.47
2022-08-26T17:17:24.861Z,29.30
2022-08-26T17:19:54.683Z,25.73
2022-08-26T17:22:22.272Z,25.53
2022-08-26T17:24:50.151Z,25.70
2022-08-26T17:27:17.897Z,22.10
2022-08-26T17:29:46.840Z,26.90
2022-08-26T17:32:14.661Z,28.87
2022-08-26T17:34:42.570Z,27.80
2022-08-26T17:37:10.109Z,29.53
2022-08-26T17:39:42.467Z,28.10
2022-08-26T17:42:11.655Z,28.33
2022-08-26T17:44:39.709Z,30.10
2022-08-26T17:47:09.097Z,22.77
2022-08-26T17:49:36.635Z,26.43
2022-08-26T17:52:07.488Z,30.60
2022-08-26T17:54:38.878Z,29.50
2022-08-26T17:57:06.469Z,33.03
2022-08-26T17:59:40.992Z,31.23
2022-08-26T18:02:10.094Z,30.87
2022-08-26T18:04:37.722Z,30.60
2022-08-26T18:07:05.702Z,30.17
2022-08-26T18:09:33.599Z,34.77
2022-08-26T18:12:01.377Z,33.87
2022-08-26T18:14:29.894Z,35.30
2022-08-26T18:16:57.469Z,30.33
2022-08-26T18:19:26.480Z,34.47
2022-08-26T18:21:54.551Z,33.63
2022-08-26T18:24:22.225Z,32.10
2022-08-26T18:26:50.946Z,28.77
2022-08-26T18:29:19.610Z,31.60
2022-08-26T18:31:48.426Z,29.57
2022-08-26T18:34:16.857Z,32.07
2022-08-26T18:36:46.487Z,29.83
2022-08-26T18:39:14.558Z,29.83
2022-08-26T18:41:44.587Z,29.57
2022-08-26T18:44:14.038Z,31.17
2022-08-26T18:46:42.199Z,31.20
2022-08-26T18:49:10.948Z,33.83
2022-08-26T18:51:39.323Z,31.77
2022-08-26T18:54:08.541Z,30.20
2022-08-26T18:56:37.317Z,33.80
2022-08-26T18:59:05.346Z,35.40
2022-08-26T19:01:33.376Z,33.10
2022-08-26T19:04:01.955Z,32.37
2022-08-26T19:06:32.517Z,29.67
2022-08-26T19:09:00.510Z,34.20
2022-08-26T19:11:31.733Z,29.50
2022-08-26T19:14:00.907Z,29.00
2022-08-26T19:16:29.787Z,28.20
2022-08-26T19:18:58.330Z,27.60
2022-08-26T19:21:26.152Z,26.73
2022-08-26T19:23:56.771Z,26.77
2022-08-26T19:26:25.680Z,24.90
2022-08-26T19:28:55.130Z,23.40
2022-08-26T19:31:22.902Z,23.50
2022-08-26T19:33:50.468Z,25.73
2022-08-26T19:36:20.021Z,28.50
2022-08-26T19:38:48.000Z,27.40
2022-08-26T19:41:16.878Z,21.40
2022-08-26T19:43:46.248Z,21.57
2022-08-26T19:46:17.403Z,21.77
2022-08-26T19:48:45.431Z,22.90
2022-08-26T19:51:13.727Z,23.63
2022-08-26T19:53:41.826Z,26.77
2022-08-26T19:56:09.411Z,23.27
2022-08-26T19:58:37.490Z,25.03
2022-08-26T20:01:05.776Z,20.23
2022-08-26T20:03:35.118Z,19.43
2022-08-26T20:06:03.964Z,20.43
2022-08-26T20:08:31.631Z,19.13
2022-08-26T20:11:01.123Z,22.00
2022-08-26T20:13:29.427Z,23.77
2022-08-26T20:15:57.087Z,24.60
2022-08-26T20:18:42.755Z,25.13
2022-08-26T20:21:28.573Z,30.57
2022-08-26T20:23:58.571Z,32.93
2022-08-26T20:26:27.815Z,36.00
2022-08-26T20:28:55.752Z,21.60
2022-08-26T20:31:23.790Z,24.43
2022-08-26T20:33:51.679Z,23.77
2022-08-26T20:36:21.839Z,22.97
2022-08-26T20:38:50.171Z,22.63
2022-08-26T20:41:17.959Z,25.80
2022-08-26T20:43:46.169Z,29.33
2022-08-26T20:46:18.783Z,32.33
2022-08-26T20:48:49.144Z,27.23
2022-08-26T20:51:17.370Z,28.60
2022-08-26T20:53:46.657Z,28.00
2022-08-26T20:56:15.841Z,26.20
2022-08-26T20:58:43.805Z,33.20
2022-08-26T21:01:18.210Z,28.93
2022-08-26T21:03:46.686Z,26.00
2022-08-26T21:06:14.371Z,24.00
2022-08-26T21:08:43.306Z,25.37
2022-08-26T21:11:14.162Z,23.17
2022-08-26T21:14:03.523Z,23.33
2022-08-26T21:16:30.134Z,23.43
2022-08-26T21:18:57.909Z,22.10
2022-08-26T21:21:28.669Z,21.63
2022-08-26T21:23:56.611Z,21.07
2022-08-26T21:26:48.218Z,18.80
2022-08-26T21:29:16.347Z,18.30
2022-08-26T21:31:46.875Z,18.07
2022-08-26T21:34:15.206Z,16.23
2022-08-26T21:36:42.921Z,16.20
2022-08-26T21:39:12.151Z,15.63
2022-08-26T21:41:40.524Z,14.20
2022-08-26T21:44:10.443Z,14.90
2022-08-26T21:46:38.179Z,16.10
2022-08-26T21:49:06.815Z,15.77
2022-08-26T21:51:36.684Z,17.17
2022-08-26T21:54:09.962Z,16.50
2022-08-26T21:56:40.719Z,17.70
2022-08-26T21:59:08.873Z,17.13
2022-08-26T22:01:38.450Z,16.80
2022-08-26T22:04:09.224Z,15.60
2022-08-26T22:06:40.451Z,16.80
2022-08-26T22:09:08.865Z,16.57
2022-08-26T22:11:36.752Z,18.07
2022-08-26T22:14:04.573Z,19.67
2022-08-26T22:16:32.200Z,16.33
2022-08-26T22:19:01.755Z,16.30
2022-08-26T22:21:29.376Z,16.10
2022-08-26T22:23:58.902Z,17.63
2022-08-26T22:26:27.545Z,17.33
2022-08-26T22:28:59.134Z,16.40
2022-08-26T22:31:29.068Z,17.10
2022-08-26T22:34:08.372Z,16.90
2022-08-26T22:36:43.111Z,15.20
2022-08-26T22:39:12.392Z,16.03
2022-08-26T22:41:40.318Z,15.13
2022-08-26T22:44:08.277Z,15.10
2022-08-26T22:46:36.755Z,14.70
2022-08-26T22:49:05.161Z,15.60
2022-08-26T22:51:34.622Z,14.27
2022-08-26T22:54:02.920Z,14.27
2022-08-26T22:56:30.836Z,15.77
2022-08-26T22:58:58.699Z,15.23
2022-08-26T23:01:26.433Z,15.47
2022-08-26T23:03:54.435Z,13.60
2022-08-26T23:06:22.135Z,14.93
2022-08-26T23:08:51.309Z,13.90
2022-08-26T23:11:19.344Z,13.40
2022-08-26T23:13:47.145Z,14.50
2022-08-26T23:16:15.019Z,14.73
2022-08-26T23:18:43.049Z,15.10
2022-08-26T23:21:10.735Z,15.70
2022-08-26T23:23:38.963Z,15.63
2022-08-26T23:26:08.788Z,14.80
2022-08-26T23:28:38.361Z,15.90
2022-08-26T23:31:06.623Z,14.33
2022-08-26T23:33:48.196Z,16.10
2022-08-26T23:36:18.105Z,15.10
2022-08-26T23:38:47.673Z,16.10
2022-08-26T23:41:22.860Z,14.47
2022-08-26T23:43:50.533Z,16.70
2022-08-26T23:46:18.699Z,16.40
2022-08-26T23:48:46.971Z,15.70
2022-08-26T23:51:32.294Z,15.30
2022-08-26T23:53:59.976Z,16.53
2022-08-26T23:56:29.642Z,17.03
2022-08-26T23:58:57.667Z,17.17
